Time;durP1;ratioP1;P1;durP2;ratioP2;P2;SDS_P1;SDS_P2;PMS_P1;PMS_P2;Temp;Humidity;BMP_temperature;BMP_pressure;BME280_temperature;BME280_humidity;BME280_pressure;Samples;Min_cycle;Max_cycle;Signal;HPM_P1;HPM_P2
2022/03/06 00:02:07;;;;;;;13.57;9.68;;;4.70;99.90;;;;;;5031972;28;20052;-63
2022/03/06 00:04:33;;;;;;;17.00;10.23;;;4.60;99.90;;;;;;5038915;28;20083;-63
2022/03/06 00:06:58;;;;;;;14.40;9.13;;;4.60;99.90;;;;;;5038609;28;20095;-64
2022/03/06 00:09:24;;;;;;;16.10;8.85;;;4.60;99.90;;;;;;5034607;28;20445;-63
2022/03/06 00:11:50;;;;;;;17.45;9.10;;;4.60;99.90;;;;;;5036326;28;20107;-64
2022/03/06 00:14:16;;;;;;;15.00;10.57;;;4.50;99.90;;;;;;5043376;28;20540;-64
2022/03/06 00:16:42;;;;;;;20.42;11.48;;;4.60;99.90;;;;;;5043999;28;20044;-64
2022/03/06 00:19:08;;;;;;;20.58;11.98;;;4.60;99.90;;;;;;5036840;28;20045;-64
2022/03/06 00:21:37;;;;;;;20.33;12.00;;;4.60;99.90;;;;;;5036057;28;20033;-64
2022/03/06 00:24:03;;;;;;;16.02;11.77;;;4.70;99.90;;;;;;5040396;28;20132;-64
2022/03/06 00:26:29;;;;;;;13.82;10.15;;;4.60;99.90;;;;;;5045286;28;20029;-64
2022/03/06 00:28:55;;;;;;;17.58;9.68;;;4.60;99.90;;;;;;5035763;28;20520;-64
2022/03/06 00:31:23;;;;;;;11.40;8.95;;;4.60;99.90;;;;;;5032634;28;20049;-64
2022/03/06 00:33:49;;;;;;;16.17;10.30;;;4.60;99.90;;;;;;5035225;28;20048;-64
2022/03/06 00:36:15;;;;;;;12.90;10.05;;;4.60;99.90;;;;;;5035180;28;20045;-64
2022/03/06 00:38:40;;;;;;;19.13;10.82;;;4.50;99.90;;;;;;5038246;28;20068;-63
2022/03/06 00:41:06;;;;;;;13.52;10.93;;;4.60;99.90;;;;;;5032224;28;20047;-64
2022/03/06 00:43:32;;;;;;;13.93;10.07;;;4.50;99.90;;;;;;5036808;28;20057;-64
2022/03/06 00:45:57;;;;;;;15.93;11.07;;;4.50;99.90;;;;;;5038152;28;20048;-64
2022/03/06 00:48:23;;;;;;;12.93;9.35;;;4.50;99.90;;;;;;5038716;28;20048;-64
2022/03/06 00:50:48;;;;;;;13.18;10.23;;;4.50;99.90;;;;;;5034079;28;20066;-63
2022/03/06 00:53:14;;;;;;;13.57;10.27;;;4.50;99.90;;;;;;5037600;28;20489;-64
2022/03/06 00:55:39;;;;;;;12.77;10.15;;;4.50;99.90;;;;;;5032639;28;20081;-63
2022/03/06 00:58:05;;;;;;;11.85;10.30;;;4.30;99.90;;;;;;5043956;28;20095;-63
2022/03/06 01:00:35;;;;;;;17.45;11.95;;;4.40;99.90;;;;;;5043550;28;20966;-63
2022/03/06 01:03:04;;;;;;;16.70;10.55;;;4.40;99.90;;;;;;5040125;28;20057;-64
2022/03/06 01:05:29;;;;;;;15.52;11.02;;;4.40;99.90;;;;;;5046515;28;20575;-64
2022/03/06 01:07:55;;;;;;;16.17;11.63;;;4.50;99.90;;;;;;5049713;28;20056;-64
2022/03/06 01:10:21;;;;;;;15.27;10.95;;;4.50;99.90;;;;;;5030632;28;20666;-63
2022/03/06 01:12:46;;;;;;;13.80;10.30;;;4.50;99.90;;;;;;5046427;28;20080;-63
2022/03/06 01:15:12;;;;;;;15.23;10.55;;;4.50;99.90;;;;;;5047737;28;20051;-63
2022/03/06 01:17:37;;;;;;;12.10;10.43;;;4.70;99.90;;;;;;5039473;28;20042;-63
2022/03/06 01:20:05;;;;;;;16.25;10.90;;;4.70;99.90;;;;;;5043073;28;20049;-63
2022/03/06 01:22:30;;;;;;;14.55;10.20;;;4.80;99.90;;;;;;5039341;28;20049;-63
2022/03/06 01:24:56;;;;;;;12.13;9.73;;;4.70;99.90;;;;;;5041225;28;20539;-63
2022/03/06 01:27:21;;;;;;;13.55;11.23;;;4.70;99.90;;;;;;5040254;28;20041;-63
2022/03/06 01:29:47;;;;;;;15.23;10.80;;;4.70;99.90;;;;;;5036243;28;20056;-63
2022/03/06 01:32:13;;;;;;;20.65;11.98;;;4.80;99.90;;;;;;5030557;28;20060;-63
2022/03/06 01:34:38;;;;;;;15.63;10.88;;;4.80;99.90;;;;;;5031159;28;20050;-63
2022/03/06 01:37:04;;;;;;;16.13;11.82;;;4.80;99.90;;;;;;5048276;28;20425;-63
2022/03/06 01:39:30;;;;;;;13.48;10.82;;;4.70;99.90;;;;;;5043914;28;20409;-63
2022/03/06 01:41:56;;;;;;;19.95;13.30;;;4.80;99.90;;;;;;5040160;28;20127;-63
2022/03/06 01:44:21;;;;;;;15.63;11.15;;;4.80;99.90;;;;;;5035586;28;20052;-64
2022/03/06 01:46:47;;;;;;;15.07;11.27;;;4.80;99.90;;;;;;5045592;28;20044;-63
2022/03/06 01:49:14;;;;;;;16.20;11.85;;;4.90;99.90;;;;;;5035374;28;20091;-64
2022/03/06 01:51:40;;;;;;;17.75;11.40;;;4.90;99.90;;;;;;5034281;28;20492;-63
2022/03/06 01:54:06;;;;;;;19.20;12.68;;;4.90;99.90;;;;;;5041356;28;20053;-63
2022/03/06 01:56:31;;;;;;;17.50;11.98;;;5.00;99.90;;;;;;5043739;28;20049;-63
2022/03/06 01:58:58;;;;;;;20.40;12.40;;;4.90;99.90;;;;;;5033450;28;20053;-63
2022/03/06 02:01:24;;;;;;;15.23;11.60;;;4.90;99.90;;;;;;5038525;28;20041;-63
2022/03/06 02:03:50;;;;;;;15.90;10.57;;;5.00;99.90;;;;;;5038566;28;20040;-63
2022/03/06 02:06:19;;;;;;;14.85;11.43;;;5.00;99.90;;;;;;5036374;28;20154;-63
2022/03/06 02:08:46;;;;;;;17.00;10.70;;;5.00;99.90;;;;;;5037430;28;20041;-63
2022/03/06 02:11:13;;;;;;;15.38;10.75;;;5.00;99.90;;;;;;5038548;28;20059;-63
2022/03/06 02:13:38;;;;;;;14.35;9.90;;;5.00;99.90;;;;;;5041789;28;20041;-63
2022/03/06 02:16:05;;;;;;;18.65;11.52;;;5.00;99.90;;;;;;5029964;28;20045;-63
2022/03/06 02:18:31;;;;;;;14.18;10.20;;;4.90;99.90;;;;;;5042922;28;20049;-63
2022/03/06 02:20:57;;;;;;;14.38;9.40;;;4.90;99.90;;;;;;5038197;28;20495;-63
2022/03/06 02:23:22;;;;;;;14.98;10.60;;;4.90;99.90;;;;;;5031777;28;20049;-63
2022/03/06 02:25:48;;;;;;;15.55;10.43;;;4.90;99.90;;;;;;5037121;28;20037;-63
2022/03/06 02:28:14;;;;;;;11.75;9.43;;;4.90;99.90;;;;;;5042066;28;20492;-63
2022/03/06 02:30:41;;;;;;;19.73;10.93;;;4.90;99.90;;;;;;5038652;28;20094;-63
2022/03/06 02:33:11;;;;;;;14.43;10.15;;;4.90;99.90;;;;;;5038238;28;20045;-63
2022/03/06 02:35:37;;;;;;;15.10;9.48;;;4.90;99.90;;;;;;5034968;28;20048;-63
2022/03/06 02:38:03;;;;;;;16.30;9.65;;;4.90;99.90;;;;;;5035080;28;20039;-63
2022/03/06 02:40:29;;;;;;;12.68;9.75;;;4.90;99.90;;;;;;5033309;28;20037;-63
2022/03/06 02:42:55;;;;;;;15.73;10.57;;;4.90;99.90;;;;;;5046865;28;20455;-63
2022/03/06 02:45:24;;;;;;;15.77;10.43;;;4.90;99.90;;;;;;5029835;28;20068;-63
2022/03/06 02:47:55;;;;;;;15.73;9.88;;;4.90;99.90;;;;;;5037685;28;20076;-63
2022/03/06 02:50:23;;;;;;;15.90;10.30;;;4.90;99.90;;;;;;5043121;28;20071;-63
2022/03/06 02:52:51;;;;;;;16.90;9.68;;;4.80;99.90;;;;;;5043628;28;20049;-63
2022/03/06 02:55:17;;;;;;;13.75;8.40;;;4.80;99.90;;;;;;5043829;28;20409;-63
2022/03/06 02:57:43;;;;;;;11.95;8.45;;;5.00;99.90;;;;;;5046076;28;20087;-63
2022/03/06 03:00:11;;;;;;;14.02;8.07;;;4.90;99.90;;;;;;5047779;28;20076;-63
2022/03/06 03:02:37;;;;;;;12.60;9.07;;;4.80;99.90;;;;;;5042151;28;20072;-63
2022/03/06 03:05:05;;;;;;;18.98;8.02;;;4.80;99.90;;;;;;5042759;28;20055;-63
2022/03/06 03:07:30;;;;;;;15.70;8.13;;;4.90;99.90;;;;;;5040293;28;20115;-63
2022/03/06 03:09:56;;;;;;;11.85;7.35;;;4.80;99.90;;;;;;5034135;28;20486;-63
2022/03/06 03:12:22;;;;;;;14.73;8.70;;;4.90;99.90;;;;;;5036771;28;20045;-63
2022/03/06 03:14:47;;;;;;;10.18;7.13;;;4.90;99.90;;;;;;5035386;28;20251;-63
2022/03/06 03:17:13;;;;;;;14.52;7.60;;;4.80;99.90;;;;;;5034963;28;20072;-63
2022/03/06 03:19:38;;;;;;;10.63;7.13;;;4.80;99.90;;;;;;5034216;28;20037;-63
2022/03/06 03:22:04;;;;;;;10.75;7.93;;;4.70;99.90;;;;;;5034261;28;20045;-63
2022/03/06 03:24:30;;;;;;;15.75;6.55;;;4.80;99.90;;;;;;5034820;28;20044;-63
2022/03/06 03:26:56;;;;;;;11.48;6.25;;;4.80;99.90;;;;;;5038678;28;20213;-63
2022/03/06 03:29:21;;;;;;;16.05;6.82;;;4.80;99.90;;;;;;5037728;28;20082;-63
2022/03/06 03:31:47;;;;;;;9.27;6.22;;;4.70;99.90;;;;;;5029268;28;20458;-63
2022/03/06 03:34:13;;;;;;;13.70;6.68;;;4.80;99.90;;;;;;5029467;28;20087;-63
2022/03/06 03:36:39;;;;;;;9.48;5.72;;;4.80;99.90;;;;;;5035516;28;20072;-63
2022/03/06 03:39:05;;;;;;;11.45;6.78;;;4.70;99.90;;;;;;5033502;28;20057;-63
2022/03/06 03:41:31;;;;;;;10.50;6.60;;;4.80;99.90;;;;;;5038849;28;20063;-63
2022/03/06 03:43:58;;;;;;;16.98;6.15;;;4.80;99.90;;;;;;5032247;28;20124;-63
2022/03/06 03:46:24;;;;;;;11.88;5.90;;;4.80;99.90;;;;;;5037042;28;20690;-63
2022/03/06 03:48:49;;;;;;;11.63;6.50;;;4.80;99.90;;;;;;5035849;28;20034;-63
2022/03/06 03:51:15;;;;;;;14.07;5.85;;;4.80;99.90;;;;;;5038610;28;20199;-63
2022/03/06 03:53:41;;;;;;;11.18;5.80;;;4.70;99.90;;;;;;5042699;28;20046;-63
2022/03/06 03:56:07;;;;;;;14.15;5.30;;;4.70;99.90;;;;;;5032879;28;20478;-63
2022/03/06 03:58:33;;;;;;;10.90;5.60;;;4.70;99.90;;;;;;5043488;28;20048;-63
2022/03/06 04:00:59;;;;;;;13.63;5.97;;;4.70;99.90;;;;;;5045454;28;20041;-63
2022/03/06 04:03:25;;;;;;;8.15;5.13;;;4.80;99.90;;;;;;5036203;28;20136;-63
2022/03/06 04:05:51;;;;;;;11.02;4.70;;;4.70;99.90;;;;;;5032865;28;20497;-63
2022/03/06 04:08:17;;;;;;;7.28;5.32;;;4.70;99.90;;;;;;5033575;28;20041;-63
2022/03/06 04:10:42;;;;;;;10.57;5.50;;;4.70;99.90;;;;;;5028027;28;20056;-63
2022/03/06 04:13:08;;;;;;;6.90;4.30;;;4.70;99.90;;;;;;5029255;28;20041;-64
2022/03/06 04:15:34;;;;;;;7.60;4.85;;;4.70;99.90;;;;;;5039591;28;20220;-64
2022/03/06 04:17:59;;;;;;;16.05;5.93;;;4.80;99.90;;;;;;5033690;28;20115;-63
2022/03/06 04:20:25;;;;;;;9.70;4.68;;;4.70;99.90;;;;;;5044157;28;20110;-63
2022/03/06 04:22:51;;;;;;;8.43;4.70;;;4.70;99.90;;;;;;5037630;28;20056;-63
2022/03/06 04:25:17;;;;;;;14.77;5.88;;;4.80;99.90;;;;;;5046370;28;20045;-63
2022/03/06 04:27:42;;;;;;;11.55;6.15;;;4.70;99.90;;;;;;5035228;28;20495;-63
2022/03/06 04:30:08;;;;;;;14.90;5.75;;;4.70;99.90;;;;;;5028381;28;20034;-64
2022/03/06 04:32:34;;;;;;;9.45;5.45;;;4.70;99.90;;;;;;5035772;28;20412;-64
2022/03/06 04:35:00;;;;;;;11.20;6.07;;;4.70;99.90;;;;;;5035118;28;20052;-63
2022/03/06 04:37:26;;;;;;;13.02;5.88;;;4.70;99.90;;;;;;5035836;28;20861;-64
2022/03/06 04:39:51;;;;;;;12.50;6.28;;;4.70;99.90;;;;;;5034064;28;20039;-64
2022/03/06 04:42:17;;;;;;;15.32;5.82;;;4.70;99.90;;;;;;5044832;28;20481;-63
2022/03/06 04:44:42;;;;;;;8.30;5.75;;;4.70;99.90;;;;;;5047515;28;20045;-64
2022/03/06 04:47:08;;;;;;;14.65;5.15;;;4.70;99.90;;;;;;5039147;28;20052;-63
2022/03/06 04:49:34;;;;;;;8.85;5.47;;;4.60;99.90;;;;;;5041196;28;20033;-63
2022/03/06 04:52:00;;;;;;;8.38;5.53;;;4.70;99.90;;;;;;5034102;28;20058;-63
2022/03/06 04:54:25;;;;;;;9.13;5.82;;;4.70;99.90;;;;;;5043541;28;20498;-63
2022/03/06 04:56:51;;;;;;;11.07;5.40;;;4.70;99.90;;;;;;5045131;28;20069;-63
2022/03/06 04:59:17;;;;;;;11.40;5.70;;;4.70;99.90;;;;;;5037562;28;20045;-63
2022/03/06 05:01:42;;;;;;;8.10;4.50;;;4.60;99.90;;;;;;5037773;28;20033;-63
2022/03/06 05:04:08;;;;;;;9.73;5.80;;;4.60;99.90;;;;;;5045871;28;20051;-63
2022/03/06 05:06:34;;;;;;;8.77;4.95;;;4.60;99.90;;;;;;5050142;28;20128;-64
2022/03/06 05:09:00;;;;;;;11.90;5.82;;;4.60;99.90;;;;;;5034720;28;20045;-63
2022/03/06 05:11:25;;;;;;;12.73;5.38;;;4.60;99.90;;;;;;5031365;28;20096;-63
2022/03/06 05:13:51;;;;;;;6.35;4.53;;;4.60;99.90;;;;;;5037958;28;20077;-63
2022/03/06 05:16:16;;;;;;;10.45;5.78;;;4.60;99.90;;;;;;5048199;28;20637;-63
2022/03/06 05:18:42;;;;;;;8.48;5.15;;;4.60;99.90;;;;;;5044505;28;20037;-63
2022/03/06 05:21:07;;;;;;;11.25;4.80;;;4.60;99.90;;;;;;5034006;28;20485;-63
2022/03/06 05:23:33;;;;;;;7.57;4.60;;;4.60;99.90;;;;;;5034238;28;20099;-63
2022/03/06 05:25:59;;;;;;;11.85;5.68;;;4.60;99.90;;;;;;5037935;28;20029;-63
2022/03/06 05:28:27;;;;;;;9.20;4.30;;;4.60;99.90;;;;;;5038867;28;20051;-63
2022/03/06 05:30:52;;;;;;;9.80;5.03;;;4.50;99.90;;;;;;5038747;28;20038;-63
2022/03/06 05:33:18;;;;;;;6.20;4.00;;;4.60;99.90;;;;;;5037006;28;20041;-64
2022/03/06 05:35:44;;;;;;;7.28;5.20;;;4.60;99.90;;;;;;5038802;28;20060;-64
2022/03/06 05:38:09;;;;;;;9.55;4.88;;;4.50;99.90;;;;;;5033983;28;20037;-63
2022/03/06 05:40:35;;;;;;;8.88;4.25;;;4.60;99.90;;;;;;5033828;28;20049;-63
2022/03/06 05:43:00;;;;;;;7.07;4.10;;;4.60;99.90;;;;;;5044135;28;20081;-63
2022/03/06 05:45:26;;;;;;;6.43;3.90;;;4.60;99.90;;;;;;5046944;28;20124;-63
2022/03/06 05:47:52;;;;;;;7.65;4.20;;;4.60;99.90;;;;;;5036511;28;20175;-63
2022/03/06 05:50:17;;;;;;;10.15;4.80;;;4.60;99.90;;;;;;5040096;28;20044;-63
2022/03/06 05:52:43;;;;;;;7.53;3.67;;;4.50;99.90;;;;;;5032214;28;20053;-63
2022/03/06 05:55:09;;;;;;;6.70;3.65;;;4.50;99.90;;;;;;5037582;28;20044;-63
2022/03/06 05:57:35;;;;;;;7.90;3.05;;;4.50;99.90;;;;;;5041304;28;20064;-63
2022/03/06 06:00:01;;;;;;;5.25;2.97;;;4.50;99.90;;;;;;5043209;28;20481;-63
2022/03/06 06:02:26;;;;;;;3.83;2.60;;;4.50;99.90;;;;;;5032763;28;20116;-63
2022/03/06 06:04:52;;;;;;;3.88;2.53;;;4.50;99.90;;;;;;5039968;28;20057;-63
2022/03/06 06:07:18;;;;;;;4.60;2.97;;;4.50;99.90;;;;;;5039191;28;20045;-63
2022/03/06 06:09:44;;;;;;;6.72;3.00;;;4.40;99.90;;;;;;5034282;28;20386;-63
2022/03/06 06:12:10;;;;;;;7.43;2.88;;;4.40;99.90;;;;;;5034193;28;20042;-63
2022/03/06 06:14:35;;;;;;;5.38;2.72;;;4.50;99.90;;;;;;5035222;28;20094;-63
2022/03/06 06:17:01;;;;;;;4.18;2.00;;;4.50;99.90;;;;;;5036521;28;20095;-63
2022/03/06 06:19:27;;;;;;;4.00;1.95;;;4.50;99.90;;;;;;5041626;28;20138;-63
2022/03/06 06:21:52;;;;;;;6.28;2.22;;;4.60;99.90;;;;;;5040905;28;20047;-63
2022/03/06 06:24:18;;;;;;;3.75;1.95;;;4.50;99.90;;;;;;5043522;28;20116;-63
2022/03/06 06:26:47;;;;;;;3.22;1.95;;;4.50;99.90;;;;;;5038786;28;20041;-63
2022/03/06 06:29:13;;;;;;;4.00;1.88;;;4.60;99.90;;;;;;5041499;28;20041;-63
2022/03/06 06:31:39;;;;;;;2.95;1.60;;;4.60;99.90;;;;;;5039713;28;20048;-63
2022/03/06 06:34:05;;;;;;;4.13;2.03;;;4.60;99.90;;;;;;5035418;28;20050;-63
2022/03/06 06:36:30;;;;;;;1.90;1.40;;;4.70;99.90;;;;;;5034013;28;20041;-63
2022/03/06 06:38:56;;;;;;;3.78;2.10;;;4.70;99.90;;;;;;5036929;28;20034;-63
2022/03/06 06:41:22;;;;;;;7.20;4.07;;;4.80;99.90;;;;;;5030469;28;20411;-63
2022/03/06 06:43:48;;;;;;;12.48;3.00;;;4.80;99.90;;;;;;5034792;28;20049;-63
2022/03/06 06:46:13;;;;;;;3.67;2.63;;;4.70;99.90;;;;;;5032877;28;20033;-63
2022/03/06 06:48:39;;;;;;;3.70;1.95;;;4.70;99.90;;;;;;5035564;28;20099;-63
2022/03/06 06:51:05;;;;;;;8.55;1.85;;;4.70;99.90;;;;;;5034103;28;20060;-63
2022/03/06 06:53:31;;;;;;;2.83;1.90;;;4.70;99.90;;;;;;5032562;28;20053;-63
2022/03/06 06:55:56;;;;;;;6.20;1.98;;;4.70;99.90;;;;;;5038134;28;20045;-64
2022/03/06 06:58:22;;;;;;;8.00;2.50;;;4.70;99.90;;;;;;5035427;28;20040;-63
2022/03/06 07:00:48;;;;;;;3.15;1.98;;;4.50;99.90;;;;;;5042077;28;20036;-63
2022/03/06 07:03:13;;;;;;;5.85;2.55;;;4.40;99.90;;;;;;5042464;28;20068;-63
2022/03/06 07:05:39;;;;;;;6.47;2.33;;;4.50;99.90;;;;;;5033741;28;20037;-63
2022/03/06 07:08:05;;;;;;;6.20;1.92;;;4.40;99.90;;;;;;5041269;28;20100;-63
2022/03/06 07:10:31;;;;;;;4.55;1.63;;;4.30;99.90;;;;;;5037430;28;20041;-63
2022/03/06 07:12:58;;;;;;;5.00;1.63;;;4.40;99.90;;;;;;5029066;28;20536;-63
2022/03/06 07:15:32;;;;;;;3.50;1.55;;;4.30;99.90;;;;;;5041128;28;20117;-63
2022/03/06 07:17:59;;;;;;;7.10;2.00;;;4.40;99.90;;;;;;5035801;28;20489;-63
2022/03/06 07:20:25;;;;;;;5.65;1.50;;;4.30;99.90;;;;;;5037786;28;20075;-63
2022/03/06 07:22:51;;;;;;;3.88;1.75;;;4.30;99.90;;;;;;5041744;28;20037;-63
2022/03/06 07:25:17;;;;;;;5.18;1.58;;;4.40;99.90;;;;;;5037481;28;20055;-63
2022/03/06 07:27:42;;;;;;;5.13;1.67;;;4.40;99.90;;;;;;5039496;28;20045;-64
2022/03/06 07:30:09;;;;;;;3.33;1.83;;;4.50;99.90;;;;;;5043817;28;20029;-64
2022/03/06 07:32:51;;;;;;;3.95;2.15;;;4.50;99.90;;;;;;5032398;28;20112;-63
2022/03/06 07:35:18;;;;;;;2.63;1.58;;;4.50;99.90;;;;;;5039136;28;20515;-63
2022/03/06 07:37:43;;;;;;;4.85;2.15;;;4.60;99.90;;;;;;5038897;28;20033;-63
2022/03/06 07:40:12;;;;;;;4.50;2.58;;;4.50;99.90;;;;;;5029962;28;20408;-63
2022/03/06 07:42:38;;;;;;;7.05;4.25;;;4.50;99.90;;;;;;5032162;28;20536;-63
2022/03/06 07:45:04;;;;;;;4.63;3.00;;;4.60;99.90;;;;;;5035358;28;20090;-64
2022/03/06 07:47:30;;;;;;;4.03;2.00;;;4.60;99.90;;;;;;5033084;28;20048;-63
2022/03/06 07:49:56;;;;;;;6.15;2.28;;;4.70;99.90;;;;;;5041022;28;20037;-63
2022/03/06 07:52:21;;;;;;;5.88;2.28;;;4.80;99.90;;;;;;5030764;28;20700;-63
2022/03/06 07:54:47;;;;;;;2.72;1.55;;;4.80;99.90;;;;;;5041111;28;20445;-63
2022/03/06 07:57:13;;;;;;;7.50;2.60;;;4.80;99.90;;;;;;5028695;28;20825;-63
2022/03/06 07:59:38;;;;;;;6.38;1.92;;;4.80;99.90;;;;;;5028526;28;20045;-63
2022/03/06 08:02:04;;;;;;;6.93;2.75;;;4.70;99.90;;;;;;5028207;28;20046;-63
2022/03/06 08:04:30;;;;;;;13.00;4.25;;;4.80;99.90;;;;;;5046311;28;20037;-63
2022/03/06 08:06:55;;;;;;;7.03;3.42;;;4.90;99.90;;;;;;5036723;28;20110;-63
2022/03/06 08:09:24;;;;;;;5.72;2.45;;;5.00;99.90;;;;;;5032807;28;20451;-62
2022/03/06 08:11:50;;;;;;;4.30;1.90;;;5.00;99.90;;;;;;5036448;28;20041;-63
2022/03/06 08:14:16;;;;;;;2.72;1.33;;;5.00;99.90;;;;;;5027755;28;20555;-63
2022/03/06 08:16:41;;;;;;;4.55;1.88;;;5.10;99.90;;;;;;5029604;28;20042;-63
2022/03/06 08:19:07;;;;;;;2.53;1.35;;;5.10;99.90;;;;;;5032876;28;20060;-64
2022/03/06 08:21:32;;;;;;;2.28;2.00;;;5.10;99.90;;;;;;5041089;28;20029;-63
2022/03/06 08:23:58;;;;;;;4.70;2.50;;;5.10;99.90;;;;;;5031898;28;20524;-63
2022/03/06 08:26:24;;;;;;;3.90;1.80;;;5.20;99.90;;;;;;5033883;28;20086;-64
2022/03/06 08:28:50;;;;;;;5.22;2.63;;;5.30;99.90;;;;;;5027775;28;20510;-64
2022/03/06 08:31:16;;;;;;;3.75;2.10;;;5.20;99.90;;;;;;5046787;28;20053;-65
2022/03/06 08:33:43;;;;;;;4.25;2.58;;;5.50;99.90;;;;;;5048408;28;20045;-64
2022/03/06 08:36:09;;;;;;;6.97;2.38;;;5.40;99.90;;;;;;5037773;28;20124;-64
2022/03/06 08:38:34;;;;;;;11.13;3.92;;;5.50;99.90;;;;;;5032653;28;20117;-64
2022/03/06 08:41:00;;;;;;;5.10;3.08;;;5.50;99.90;;;;;;5047843;28;20044;-64
2022/03/06 08:43:25;;;;;;;3.45;2.10;;;5.60;99.90;;;;;;5034556;28;20045;-64
2022/03/06 08:45:51;;;;;;;5.63;2.42;;;5.70;99.90;;;;;;5029056;28;20060;-64
2022/03/06 08:48:16;;;;;;;6.13;2.10;;;5.70;99.90;;;;;;5037947;28;20115;-64
2022/03/06 08:50:42;;;;;;;11.45;3.28;;;5.80;99.90;;;;;;5047167;28;20086;-64
2022/03/06 08:53:08;;;;;;;7.00;3.08;;;5.80;99.90;;;;;;5037612;28;20053;-64
2022/03/06 08:55:34;;;;;;;5.10;2.28;;;5.90;99.90;;;;;;5045784;28;20510;-64
2022/03/06 08:57:59;;;;;;;4.30;2.55;;;5.90;99.90;;;;;;5030607;28;20041;-64
2022/03/06 09:00:25;;;;;;;5.78;2.40;;;6.00;99.90;;;;;;5039383;28;20562;-64
2022/03/06 09:02:50;;;;;;;3.00;1.70;;;6.00;99.90;;;;;;5048108;28;20507;-64
2022/03/06 09:05:16;;;;;;;11.70;3.30;;;5.90;99.90;;;;;;5044404;28;20472;-64
2022/03/06 09:07:42;;;;;;;11.35;4.05;;;6.00;99.90;;;;;;5035437;28;20507;-63
2022/03/06 09:10:09;;;;;;;3.65;2.05;;;6.10;99.90;;;;;;5046323;28;20128;-64
2022/03/06 09:12:35;;;;;;;7.95;3.20;;;6.10;99.90;;;;;;5034775;28;20473;-64
2022/03/06 09:15:00;;;;;;;9.23;3.13;;;6.10;99.90;;;;;;5034461;28;20052;-64
2022/03/06 09:17:26;;;;;;;9.25;3.65;;;6.10;99.90;;;;;;5044538;28;20052;-64
2022/03/06 09:19:51;;;;;;;7.95;3.33;;;6.30;99.90;;;;;;5026442;28;20080;-64
2022/03/06 09:22:17;;;;;;;6.35;2.50;;;6.30;99.90;;;;;;5045923;28;20087;-63
2022/03/06 09:24:43;;;;;;;7.13;3.65;;;6.40;99.90;;;;;;5041337;28;20041;-64
2022/03/06 09:27:08;;;;;;;3.58;1.98;;;6.30;99.90;;;;;;5034449;28;20075;-64
2022/03/06 09:29:34;;;;;;;7.15;2.40;;;6.40;99.90;;;;;;5050473;28;20033;-64
2022/03/06 09:31:59;;;;;;;5.13;2.00;;;6.40;99.90;;;;;;5051452;28;20044;-64
2022/03/06 09:34:25;;;;;;;6.40;3.65;;;6.50;99.90;;;;;;5041990;28;20049;-64
2022/03/06 09:36:50;;;;;;;6.55;2.65;;;6.50;99.90;;;;;;5036554;28;20112;-64
2022/03/06 09:39:16;;;;;;;8.75;3.70;;;7.20;99.90;;;;;;5039453;28;20697;-64
2022/03/06 09:41:43;;;;;;;7.03;2.92;;;8.00;99.90;;;;;;5044575;28;20933;-64
2022/03/06 09:44:10;;;;;;;8.35;3.63;;;8.60;99.90;;;;;;5031570;28;20038;-64
2022/03/06 09:46:37;;;;;;;3.67;2.40;;;9.50;99.90;;;;;;5035272;28;20046;-64
2022/03/06 09:49:04;;;;;;;5.18;2.28;;;10.00;99.90;;;;;;5047792;28;20556;-64
2022/03/06 09:51:38;;;;;;;3.97;2.28;;;10.40;99.00;;;;;;5050606;28;20065;-64
2022/03/06 09:54:05;;;;;;;4.78;2.88;;;10.70;98.90;;;;;;5050036;28;20041;-64
2022/03/06 09:56:31;;;;;;;6.00;2.13;;;11.20;95.80;;;;;;5032287;28;20037;-64
2022/03/06 09:58:57;;;;;;;6.22;2.45;;;11.10;95.40;;;;;;5031197;28;20037;-64
2022/03/06 10:01:22;;;;;;;3.20;1.90;;;11.80;95.30;;;;;;5033551;28;20045;-64
2022/03/06 10:03:48;;;;;;;5.07;2.10;;;11.90;93.90;;;;;;5048872;28;20033;-64
2022/03/06 10:06:13;;;;;;;4.85;2.20;;;11.80;94.70;;;;;;5036612;28;20446;-64
2022/03/06 10:08:39;;;;;;;6.70;2.42;;;11.80;95.40;;;;;;5041876;28;20524;-64
2022/03/06 10:11:12;;;;;;;3.53;1.67;;;11.60;93.70;;;;;;5035060;28;20555;-64
2022/03/06 10:13:43;;;;;;;3.67;2.35;;;11.50;95.70;;;;;;5031217;28;20072;-64
2022/03/06 10:16:19;;;;;;;5.82;2.80;;;11.40;93.40;;;;;;5035331;28;20079;-64
2022/03/06 10:18:52;;;;;;;4.55;2.05;;;11.20;92.80;;;;;;5044746;28;20616;-64
2022/03/06 10:21:18;;;;;;;;;;;11.10;94.20;;;;;;5032316;28;20050;-64
2022/03/06 10:23:45;;;;;;;5.28;1.92;;;10.90;94.70;;;;;;5035567;28;19932;-64
2022/03/06 10:26:19;;;;;;;9.15;2.42;;;10.80;94.20;;;;;;5046514;28;20133;-64
2022/03/06 10:28:54;;;;;;;4.03;2.10;;;10.60;94.70;;;;;;5040654;28;20112;-64
2022/03/06 10:31:21;;;;;;;5.13;1.90;;;10.80;94.00;;;;;;5036781;28;20049;-64
2022/03/06 10:34:08;;;;;;;4.50;2.00;;;10.60;95.80;;;;;;5032287;28;20053;-64
2022/03/06 10:36:43;;;;;;;7.32;2.17;;;10.50;96.80;;;;;;5040203;28;20087;-64
2022/03/06 10:39:20;;;;;;;5.82;2.83;;;10.40;97.90;;;;;;5048793;28;20504;-64
2022/03/06 10:41:55;;;;;;;12.05;3.30;;;10.30;95.30;;;;;;5044319;28;20123;-64
2022/03/06 10:44:22;;;;;;;4.65;2.92;;;10.00;94.40;;;;;;5041080;28;20127;-64
2022/03/06 10:47:17;;;;;;;6.13;3.35;;;9.70;95.30;;;;;;5034180;28;20038;-64
2022/03/06 10:49:59;;;;;;;9.50;4.50;;;10.00;96.50;;;;;;5020514;28;20841;-64
2022/03/06 10:52:24;;;;;;;13.85;5.30;;;10.00;96.10;;;;;;5031484;28;20053;-64
2022/03/06 10:54:55;;;;;;;5.22;2.67;;;10.20;96.30;;;;;;5043620;28;20049;-64
2022/03/06 10:57:23;;;;;;;5.35;2.95;;;10.60;95.80;;;;;;5048131;28;20123;-64
2022/03/06 10:59:49;;;;;;;7.38;3.63;;;10.50;96.10;;;;;;5039891;28;20079;-64
2022/03/06 11:02:15;;;;;;;10.25;2.88;;;10.70;95.40;;;;;;5041552;28;20443;-64
2022/03/06 11:04:46;;;;;;;8.10;3.47;;;10.90;98.50;;;;;;5048992;28;20132;-64
2022/03/06 11:07:12;;;;;;;6.65;2.83;;;10.90;93.60;;;;;;5034422;28;20060;-64
2022/03/06 11:09:39;;;;;;;6.07;3.50;;;10.90;96.50;;;;;;5043265;28;20051;-64
2022/03/06 11:12:06;;;;;;;5.90;2.72;;;11.00;96.70;;;;;;5037997;28;20046;-64
2022/03/06 11:14:32;;;;;;;7.72;4.03;;;11.00;97.50;;;;;;5038930;28;20040;-64
2022/03/06 11:16:58;;;;;;;5.63;2.58;;;11.10;98.70;;;;;;5048890;28;20095;-64
2022/03/06 11:19:25;;;;;;;7.20;3.13;;;10.90;95.60;;;;;;5037748;28;20049;-64
2022/03/06 11:21:59;;;;;;;4.97;3.08;;;11.30;94.30;;;;;;5044509;28;20106;-64
2022/03/06 11:24:27;;;;;;;6.65;3.08;;;11.50;96.60;;;;;;5048657;28;20064;-64
2022/03/06 11:27:16;;;;;;;9.73;4.60;;;10.90;95.40;;;;;;5037233;28;20042;-64
2022/03/06 11:30:06;;;;;;;9.30;4.15;;;11.00;98.20;;;;;;5040002;28;20085;-64
2022/03/06 11:32:35;;;;;;;4.53;2.05;;;11.00;95.30;;;;;;5032558;28;20445;-64
2022/03/06 11:35:09;;;;;;;4.50;2.17;;;11.00;96.90;;;;;;5047291;28;20049;-64
2022/03/06 11:37:55;;;;;;;5.63;2.92;;;11.10;97.70;;;;;;5042313;28;20056;-64
2022/03/06 11:40:54;;;;;;;6.68;2.95;;;10.90;96.70;;;;;;5047542;28;20044;-64
2022/03/06 11:43:29;;;;;;;4.82;3.13;;;10.60;97.50;;;;;;5010663;28;20080;-64
2022/03/06 11:46:14;;;;;;;3.97;2.63;;;10.60;97.60;;;;;;5041363;28;20037;-64
2022/03/06 11:48:39;;;;;;;4.65;2.35;;;10.50;99.90;;;;;;5048786;28;20056;-64
2022/03/06 11:51:14;;;;;;;5.20;2.88;;;10.60;97.40;;;;;;5036167;28;20052;-64
2022/03/06 11:53:51;;;;;;;4.50;2.15;;;10.80;97.00;;;;;;5041501;28;20045;-64
2022/03/06 11:56:35;;;;;;;2.63;1.73;;;11.10;98.20;;;;;;5044444;28;20037;-64
2022/03/06 11:59:04;;;;;;;3.88;2.25;;;11.40;98.70;;;;;;5033795;28;20041;-64
2022/03/06 12:02:08;;;;;;;3.50;1.80;;;11.40;97.20;;;;;;5029003;28;20045;-64
2022/03/06 12:04:40;;;;;;;4.65;2.45;;;11.20;96.90;;;;;;5039283;28;20053;-64
2022/03/06 12:07:08;;;;;;;4.38;2.05;;;10.70;97.00;;;;;;5034198;28;20049;-64
2022/03/06 12:09:40;;;;;;;5.18;2.03;;;10.60;97.60;;;;;;5047316;28;20041;-64
2022/03/06 12:12:07;;;;;;;6.00;1.58;;;10.60;98.80;;;;;;5047142;28;20061;-64
2022/03/06 12:14:38;;;;;;;4.57;2.80;;;10.70;99.30;;;;;;5047011;28;20103;-64
2022/03/06 12:17:04;;;;;;;3.95;2.20;;;10.50;98.60;;;;;;5046770;28;20385;-64
2022/03/06 12:19:54;;;;;;;6.50;1.83;;;11.00;99.20;;;;;;5041239;28;20075;-64
2022/03/06 12:22:35;;;;;;;4.20;2.10;;;11.10;96.50;;;;;;5027567;28;20160;-64
2022/03/06 12:25:03;;;;;;;4.43;2.42;;;11.60;98.60;;;;;;5030614;28;20045;-64
2022/03/06 12:27:29;;;;;;;3.33;2.10;;;11.90;97.90;;;;;;5043515;28;20049;-64
2022/03/06 12:29:56;;;;;;;4.10;1.95;;;11.50;99.70;;;;;;5038285;28;20055;-64
2022/03/06 12:32:25;;;;;;;4.88;2.10;;;11.20;97.10;;;;;;5043674;28;20063;-64
2022/03/06 12:34:59;;;;;;;5.22;1.90;;;11.20;98.70;;;;;;5048668;28;20075;-64
2022/03/06 12:37:34;;;;;;;3.55;1.60;;;11.50;98.70;;;;;;5047533;28;20512;-64
2022/03/06 12:40:01;;;;;;;3.47;1.73;;;11.60;98.70;;;;;;5039789;28;20081;-64
2022/03/06 12:42:29;;;;;;;5.13;1.60;;;11.90;97.60;;;;;;5034000;28;20059;-64
2022/03/06 12:45:06;;;;;;;6.18;1.67;;;11.80;98.20;;;;;;5029938;28;20060;-64
2022/03/06 12:47:36;;;;;;;4.53;1.63;;;12.20;99.90;;;;;;5032469;28;20045;-64
2022/03/06 12:50:03;;;;;;;4.80;1.52;;;11.90;98.20;;;;;;5037413;28;20049;-64